Time;durP1;ratioP1;P1;durP2;ratioP2;P2;SDS_P1;SDS_P2;PMS_P1;PMS_P2;Temp;Humidity;BMP_temperature;BMP_pressure;BME280_temperature;BME280_humidity;BME280_pressure;Samples;Min_cycle;Max_cycle;Signal;HPM_P1;HPM_P2
2022/12/08 00:01:20;;;;;;;5.35;1.65;;;3.10;99.90;;;;;;5051694;28;20048;-72
2022/12/08 00:03:46;;;;;;;2.85;1.05;;;3.30;99.90;;;;;;5051360;28;20052;-72
2022/12/08 00:09:23;;;;;;;1.70;1.00;;;3.40;99.90;;;;;;5051883;28;20069;-72
2022/12/08 00:11:49;;;;;;;3.30;1.13;;;3.00;99.90;;;;;;5057864;28;20486;-72
2022/12/08 00:14:14;;;;;;;2.55;1.02;;;3.50;99.90;;;;;;5056858;28;20411;-72
2022/12/08 00:16:40;;;;;;;2.13;0.85;;;3.10;99.90;;;;;;5056886;28;20048;-72
2022/12/08 00:19:05;;;;;;;5.85;1.05;;;3.10;99.90;;;;;;5056992;28;20117;-72
2022/12/08 00:21:31;;;;;;;1.48;1.00;;;3.30;99.90;;;;;;5058303;28;20045;-72
2022/12/08 00:23:56;;;;;;;1.67;0.90;;;3.30;99.90;;;;;;5056314;28;20044;-72
2022/12/08 00:26:22;;;;;;;4.95;0.80;;;3.20;99.90;;;;;;5056748;28;20415;-72
2022/12/08 00:28:48;;;;;;;8.13;1.27;;;3.50;99.90;;;;;;5057940;28;20399;-71
2022/12/08 00:31:13;;;;;;;3.90;1.10;;;3.20;99.90;;;;;;5056336;28;20076;-70
2022/12/08 00:33:39;;;;;;;5.00;1.27;;;3.20;99.90;;;;;;5055888;28;20051;-71
2022/12/08 00:36:10;;;;;;;1.95;1.17;;;3.10;99.90;;;;;;5056442;28;20451;-70
2022/12/08 00:38:36;;;;;;;6.50;1.40;;;3.10;99.90;;;;;;5057962;28;20123;-70
2022/12/08 00:41:05;;;;;;;7.25;1.70;;;3.50;99.90;;;;;;5057284;28;20517;-71
2022/12/08 00:43:31;;;;;;;5.80;1.45;;;3.10;99.90;;;;;;5055685;28;20047;-71
2022/12/08 00:45:56;;;;;;;5.75;1.52;;;3.00;99.90;;;;;;5056266;28;20489;-70
2022/12/08 00:48:22;;;;;;;2.70;1.50;;;3.50;99.90;;;;;;5057405;28;20043;-70
2022/12/08 00:50:47;;;;;;;4.82;1.30;;;3.40;99.90;;;;;;5057870;28;20048;-72
2022/12/08 00:53:13;;;;;;;5.90;1.30;;;3.20;99.90;;;;;;5057259;28;20037;-70
2022/12/08 00:55:38;;;;;;;4.22;1.60;;;3.10;99.90;;;;;;5057127;28;20041;-70
2022/12/08 00:58:04;;;;;;;4.68;1.77;;;3.00;99.90;;;;;;5057905;28;20674;-70
2022/12/08 01:00:29;;;;;;;3.85;1.50;;;3.30;99.90;;;;;;5057602;28;20127;-70
2022/12/08 01:02:55;;;;;;;4.28;1.40;;;3.20;99.90;;;;;;5055182;28;20049;-70
2022/12/08 01:05:20;;;;;;;3.10;1.05;;;3.30;99.90;;;;;;5056130;28;20151;-70
2022/12/08 01:07:48;;;;;;;3.97;1.08;;;3.10;99.90;;;;;;5056058;28;20123;-70
2022/12/08 01:10:14;;;;;;;4.20;1.35;;;3.40;99.90;;;;;;5057574;28;20036;-71
2022/12/08 01:12:39;;;;;;;4.35;1.52;;;3.30;99.90;;;;;;5056886;28;20047;-70
2022/12/08 01:15:05;;;;;;;4.32;1.35;;;3.00;99.90;;;;;;5055901;28;20040;-70
2022/12/08 01:17:31;;;;;;;4.88;1.80;;;3.00;99.90;;;;;;5055902;28;20439;-72
2022/12/08 01:19:56;;;;;;;2.40;1.42;;;2.80;99.90;;;;;;5057603;28;20044;-70
2022/12/08 01:22:22;;;;;;;6.47;1.50;;;2.90;99.90;;;;;;5053449;28;20052;-70
2022/12/08 01:24:47;;;;;;;8.30;1.88;;;3.20;99.90;;;;;;5052927;28;20414;-72
2022/12/08 01:27:14;;;;;;;2.13;1.23;;;2.80;99.90;;;;;;5052867;28;20564;-70
2022/12/08 01:29:40;;;;;;;5.10;1.13;;;3.10;99.90;;;;;;5052581;28;20037;-70
2022/12/08 01:32:08;;;;;;;5.18;1.40;;;3.00;99.90;;;;;;5052523;28;20192;-70
2022/12/08 01:34:33;;;;;;;6.97;1.42;;;2.80;99.90;;;;;;5053536;28;20085;-70
2022/12/08 01:36:59;;;;;;;4.68;1.15;;;3.20;99.90;;;;;;5052630;28;20041;-70
2022/12/08 01:39:25;;;;;;;2.72;1.30;;;2.80;99.90;;;;;;5052678;28;20406;-70
2022/12/08 01:41:51;;;;;;;3.53;1.38;;;3.00;99.90;;;;;;5053627;28;20037;-70
2022/12/08 01:44:16;;;;;;;4.53;1.05;;;3.30;99.90;;;;;;5051787;28;20396;-70
2022/12/08 01:46:44;;;;;;;2.38;1.60;;;2.80;99.90;;;;;;5052272;28;20068;-70
2022/12/08 01:49:17;;;;;;;4.57;1.40;;;2.80;99.90;;;;;;5053871;28;20457;-70
2022/12/08 01:52:03;;;;;;;3.47;1.15;;;2.90;99.90;;;;;;5053826;28;20037;-70
2022/12/08 01:54:33;;;;;;;4.18;1.13;;;2.90;99.90;;;;;;5053272;28;20158;-70
2022/12/08 01:57:07;;;;;;;8.40;1.92;;;2.80;99.90;;;;;;5053608;28;20037;-70
2022/12/08 01:59:43;;;;;;;2.25;1.08;;;3.20;99.90;;;;;;5053862;28;20041;-70
2022/12/08 02:02:10;;;;;;;2.97;1.20;;;2.80;99.90;;;;;;5052063;28;20597;-70
2022/12/08 02:04:36;;;;;;;2.05;0.77;;;2.80;99.90;;;;;;5053233;28;20044;-70
2022/12/08 02:07:02;;;;;;;2.72;0.82;;;2.90;99.90;;;;;;5053245;28;20060;-70
2022/12/08 02:09:28;;;;;;;2.45;0.63;;;3.30;99.90;;;;;;5053234;28;20033;-70
2022/12/08 02:11:57;;;;;;;1.33;0.65;;;2.80;99.90;;;;;;5052016;28;20051;-71
2022/12/08 02:14:23;;;;;;;3.25;0.82;;;3.20;99.90;;;;;;5052861;28;20586;-71
2022/12/08 02:16:59;;;;;;;3.67;0.70;;;3.30;99.90;;;;;;5053208;28;20071;-71
2022/12/08 02:19:37;;;;;;;1.90;0.60;;;3.10;99.90;;;;;;5051965;28;20052;-71
2022/12/08 02:22:06;;;;;;;3.13;0.60;;;3.10;99.90;;;;;;5051660;28;20049;-71
2022/12/08 02:25:00;;;;;;;1.70;0.57;;;3.20;99.90;;;;;;5052425;28;20040;-71
2022/12/08 02:27:34;;;;;;;2.42;0.52;;;2.90;99.90;;;;;;5053224;28;20045;-70
2022/12/08 02:30:12;;;;;;;3.42;0.60;;;3.20;99.90;;;;;;5052064;28;20041;-70
2022/12/08 02:33:02;;;;;;;1.90;1.02;;;2.80;99.90;;;;;;5052361;28;20056;-70
2022/12/08 02:36:02;;;;;;;2.25;0.65;;;3.00;99.90;;;;;;5051500;28;20044;-70
2022/12/08 02:38:40;;;;;;;2.05;0.95;;;2.90;99.90;;;;;;5051369;28;20102;-71
2022/12/08 02:41:18;;;;;;;3.10;0.82;;;3.20;99.90;;;;;;5052535;28;20052;-71
2022/12/08 02:43:48;;;;;;;2.58;1.05;;;2.90;99.90;;;;;;5051863;28;20499;-71
2022/12/08 02:46:25;;;;;;;2.28;1.20;;;2.90;99.90;;;;;;5051176;28;20037;-71
2022/12/08 02:48:51;;;;;;;3.30;1.60;;;2.90;99.90;;;;;;5051514;28;20409;-71
2022/12/08 02:51:17;;;;;;;2.08;1.30;;;3.10;99.90;;;;;;5052358;28;20033;-71
2022/12/08 02:53:43;;;;;;;2.55;1.02;;;3.30;99.90;;;;;;5052275;28;20036;-71
2022/12/08 02:56:50;;;;;;;2.67;1.20;;;3.00;99.90;;;;;;5051296;28;20406;-71
2022/12/08 02:59:54;;;;;;;3.80;1.20;;;3.20;99.90;;;;;;5051095;28;20041;-71
2022/12/08 03:02:34;;;;;;;3.53;1.20;;;3.20;99.90;;;;;;5039871;28;20062;-71
2022/12/08 03:05:29;;;;;;;1.25;0.80;;;3.20;99.90;;;;;;5052062;28;20040;-71
2022/12/08 03:08:01;;;;;;;2.13;0.98;;;3.30;99.90;;;;;;5052064;28;20063;-71
2022/12/08 03:10:33;;;;;;;1.83;1.00;;;2.80;99.90;;;;;;5052313;28;20036;-71
2022/12/08 03:13:10;;;;;;;1.35;0.80;;;3.20;99.90;;;;;;5051767;28;20098;-70
2022/12/08 03:15:37;;;;;;;3.03;0.75;;;3.20;99.90;;;;;;5050886;28;20064;-71
2022/12/08 03:18:05;;;;;;;2.90;0.75;;;2.80;99.90;;;;;;5052217;28;20090;-71
2022/12/08 03:20:33;;;;;;;1.08;0.60;;;3.20;99.90;;;;;;5051851;28;20076;-71
2022/12/08 03:23:01;;;;;;;1.88;0.60;;;3.20;99.90;;;;;;5050124;28;20041;-71
2022/12/08 03:25:32;;;;;;;1.25;0.50;;;3.30;99.90;;;;;;5051943;28;20041;-71
2022/12/08 03:27:59;;;;;;;0.65;0.47;;;3.00;99.90;;;;;;5050475;28;20076;-71
2022/12/08 03:30:28;;;;;;;1.98;0.50;;;3.00;99.90;;;;;;5050304;28;20047;-71
2022/12/08 03:33:09;;;;;;;3.50;0.57;;;2.80;99.90;;;;;;5049827;28;20041;-71
2022/12/08 03:35:38;;;;;;;1.33;0.50;;;3.10;99.90;;;;;;5050356;28;20048;-71
2022/12/08 03:38:22;;;;;;;2.00;0.60;;;3.00;99.90;;;;;;5050264;28;20411;-71
2022/12/08 03:41:17;;;;;;;4.50;0.73;;;3.20;99.90;;;;;;5033866;28;20131;-71
2022/12/08 03:43:33;;;;;;;2.55;0.50;;;2.90;99.90;;;;;;5075024;22;20049;-68
2022/12/08 03:45:58;;;;;;;6.18;0.70;;;3.00;99.90;;;;;;5051263;28;20041;-68
2022/12/08 03:48:24;;;;;;;0.90;0.43;;;2.90;99.90;;;;;;5050490;28;20510;-68
2022/12/08 03:50:49;;;;;;;2.53;0.60;;;3.00;99.90;;;;;;5052038;28;20555;-68
2022/12/08 03:53:15;;;;;;;2.55;0.70;;;3.00;99.90;;;;;;5051417;28;20037;-68
2022/12/08 03:55:41;;;;;;;3.42;0.50;;;3.30;99.90;;;;;;5051252;28;20041;-69
2022/12/08 03:58:06;;;;;;;2.30;0.40;;;2.90;99.90;;;;;;5050481;28;20048;-69
2022/12/08 04:00:32;;;;;;;2.42;0.55;;;3.30;99.90;;;;;;5051892;28;20491;-68
2022/12/08 04:02:57;;;;;;;1.80;0.68;;;3.40;99.90;;;;;;5051186;28;20037;-69
2022/12/08 04:05:23;;;;;;;0.93;0.50;;;3.40;99.90;;;;;;5032926;28;20044;-69
2022/12/08 04:07:48;;;;;;;1.63;0.50;;;3.20;99.90;;;;;;5050623;28;20044;-69
2022/12/08 04:10:14;;;;;;;2.20;0.30;;;3.10;99.90;;;;;;5050261;28;20037;-68
2022/12/08 04:12:39;;;;;;;1.90;0.57;;;3.10;99.90;;;;;;5049951;28;20073;-69
2022/12/08 04:15:05;;;;;;;3.10;1.27;;;3.30;99.90;;;;;;5050082;28;20048;-69
2022/12/08 04:17:31;;;;;;;1.50;1.20;;;2.90;99.90;;;;;;5050392;28;20048;-69
2022/12/08 04:19:56;;;;;;;1.63;0.65;;;2.80;99.90;;;;;;5050036;28;20124;-68
2022/12/08 04:22:22;;;;;;;1.90;1.30;;;3.30;99.90;;;;;;5049672;28;20041;-69
2022/12/08 04:24:47;;;;;;;4.18;3.05;;;3.00;99.90;;;;;;5051139;28;20376;-68
2022/12/08 04:27:13;;;;;;;3.58;0.88;;;3.00;99.90;;;;;;5050274;28;20547;-69
2022/12/08 04:29:38;;;;;;;0.63;0.43;;;3.20;99.90;;;;;;5050203;28;20068;-68
2022/12/08 04:32:04;;;;;;;0.93;0.40;;;3.10;99.90;;;;;;5050021;28;20081;-68
2022/12/08 04:34:30;;;;;;;2.47;0.63;;;3.00;99.90;;;;;;5050842;28;20041;-69
2022/12/08 04:36:55;;;;;;;1.85;0.50;;;3.20;99.90;;;;;;5050418;28;20037;-68
2022/12/08 04:39:21;;;;;;;3.28;0.40;;;2.90;99.90;;;;;;5051268;28;20037;-69
2022/12/08 04:41:46;;;;;;;1.25;0.57;;;2.90;99.90;;;;;;5050077;28;20045;-69
2022/12/08 04:44:12;;;;;;;1.40;0.30;;;3.20;99.90;;;;;;5050456;28;20045;-69
2022/12/08 04:46:37;;;;;;;0.70;0.40;;;2.70;99.90;;;;;;5062519;28;20041;-68
2022/12/08 04:49:03;;;;;;;1.08;0.60;;;2.80;99.90;;;;;;5052728;28;20049;-70
2022/12/08 04:51:28;;;;;;;0.30;0.30;;;3.20;99.90;;;;;;5069653;28;20043;-69
2022/12/08 04:53:54;;;;;;;2.42;0.50;;;3.20;99.90;;;;;;5067815;28;20032;-69
2022/12/08 04:56:19;;;;;;;3.20;0.65;;;3.00;99.90;;;;;;5070498;28;20040;-69
2022/12/08 04:58:45;;;;;;;1.30;0.38;;;3.00;99.90;;;;;;5073316;28;20356;-69
2022/12/08 05:01:11;;;;;;;1.50;0.40;;;3.10;99.90;;;;;;5073508;28;20055;-69
2022/12/08 05:03:38;;;;;;;2.47;0.50;;;3.00;99.90;;;;;;5074243;28;20596;-69
2022/12/08 05:06:04;;;;;;;2.65;0.50;;;3.00;99.90;;;;;;5074817;28;20090;-69
2022/12/08 05:08:30;;;;;;;0.35;0.30;;;2.70;99.90;;;;;;5074717;28;20517;-69
2022/12/08 05:11:04;;;;;;;1.50;0.50;;;2.80;99.90;;;;;;5073403;28;20047;-69
2022/12/08 05:13:30;;;;;;;1.10;0.40;;;2.70;99.90;;;;;;5072793;28;20037;-69
2022/12/08 05:16:05;;;;;;;0.82;0.50;;;3.00;99.90;;;;;;5073119;28;20050;-69
2022/12/08 05:18:31;;;;;;;1.33;0.55;;;2.70;99.90;;;;;;5073259;28;20040;-68
2022/12/08 05:20:57;;;;;;;1.75;0.60;;;3.20;99.90;;;;;;5074582;28;20532;-69
2022/12/08 05:23:22;;;;;;;3.33;0.50;;;3.10;99.90;;;;;;5074089;28;20041;-69
2022/12/08 05:25:48;;;;;;;2.10;0.70;;;3.10;99.90;;;;;;5073218;28;20040;-69
2022/12/08 05:28:13;;;;;;;1.88;0.60;;;3.00;99.90;;;;;;5073302;28;20040;-69
2022/12/08 05:30:39;;;;;;;1.27;0.55;;;3.10;99.90;;;;;;5073175;28;20070;-69
2022/12/08 05:33:04;;;;;;;4.20;0.60;;;3.00;99.90;;;;;;5074112;28;20048;-69
2022/12/08 05:35:30;;;;;;;0.98;0.50;;;2.70;99.90;;;;;;5074223;28;20044;-69
2022/12/08 05:37:55;;;;;;;0.88;0.43;;;3.10;99.90;;;;;;5072981;28;20043;-69
2022/12/08 05:40:21;;;;;;;2.55;1.00;;;3.10;99.90;;;;;;5072911;28;20094;-69
2022/12/08 05:42:46;;;;;;;0.90;0.40;;;3.00;99.90;;;;;;5072322;28;20168;-69
2022/12/08 05:45:12;;;;;;;3.95;0.50;;;2.60;99.90;;;;;;5072852;28;20095;-69
2022/12/08 05:47:37;;;;;;;2.33;1.48;;;3.10;99.90;;;;;;5072873;28;20636;-68
2022/12/08 05:50:04;;;;;;;0.73;0.43;;;2.60;99.90;;;;;;5074006;28;20576;-68
2022/12/08 05:52:31;;;;;;;4.45;1.13;;;3.10;99.90;;;;;;5073386;28;20131;-69
2022/12/08 05:54:56;;;;;;;1.33;0.30;;;2.70;99.90;;;;;;5074098;28;20051;-69
2022/12/08 05:57:22;;;;;;;2.03;0.88;;;2.80;99.90;;;;;;5073908;28;20036;-69
2022/12/08 05:59:47;;;;;;;1.30;0.38;;;2.60;99.90;;;;;;5072476;28;20044;-69
2022/12/08 06:02:13;;;;;;;5.68;0.47;;;3.00;99.90;;;;;;5073496;28;20040;-69
2022/12/08 06:04:39;;;;;;;0.65;0.43;;;2.60;99.90;;;;;;5072138;28;20402;-69
2022/12/08 06:07:04;;;;;;;0.68;0.40;;;2.50;99.90;;;;;;5072296;28;20033;-68
2022/12/08 06:09:30;;;;;;;1.00;0.30;;;3.00;99.90;;;;;;5072826;28;20098;-69
2022/12/08 06:11:55;;;;;;;2.22;0.40;;;2.90;99.90;;;;;;5073498;28;20051;-68
2022/12/08 06:14:21;;;;;;;0.85;0.40;;;2.60;99.90;;;;;;5073137;28;20036;-69
2022/12/08 06:16:46;;;;;;;1.02;0.50;;;2.40;99.90;;;;;;5073612;28;20098;-68
2022/12/08 06:19:12;;;;;;;2.08;0.50;;;2.80;99.90;;;;;;5072272;28;20048;-68
2022/12/08 06:21:38;;;;;;;2.58;0.60;;;2.90;99.90;;;;;;5071962;28;20517;-68
2022/12/08 06:24:03;;;;;;;2.92;0.70;;;2.50;99.90;;;;;;5071697;28;20051;-69
2022/12/08 06:26:29;;;;;;;2.80;0.70;;;2.60;99.90;;;;;;5073333;28;20078;-69
2022/12/08 06:28:55;;;;;;;1.60;0.80;;;2.50;99.90;;;;;;5073307;28;20037;-69
2022/12/08 06:31:22;;;;;;;1.98;0.47;;;2.60;99.90;;;;;;5071902;28;20044;-69
2022/12/08 06:33:48;;;;;;;1.67;0.63;;;2.50;99.90;;;;;;5071253;28;20043;-69
2022/12/08 06:36:15;;;;;;;3.10;0.80;;;2.50;99.90;;;;;;5072778;28;20033;-69
2022/12/08 06:38:41;;;;;;;3.22;1.00;;;2.60;99.90;;;;;;5071718;28;20505;-69
2022/12/08 06:41:07;;;;;;;0.63;0.40;;;2.50;99.90;;;;;;5073102;28;20036;-69
2022/12/08 06:43:33;;;;;;;1.20;0.50;;;2.40;99.90;;;;;;5070958;28;20079;-69
2022/12/08 06:46:00;;;;;;;1.85;0.63;;;2.70;99.90;;;;;;5071678;28;20048;-69
2022/12/08 06:48:25;;;;;;;1.42;0.47;;;2.40;99.90;;;;;;5071551;28;20120;-68
2022/12/08 06:50:51;;;;;;;1.65;0.63;;;2.80;99.90;;;;;;5071246;28;20494;-69
2022/12/08 06:53:17;;;;;;;2.97;0.80;;;2.50;99.90;;;;;;5070785;28;20040;-69
2022/12/08 06:55:44;;;;;;;1.17;0.60;;;2.40;99.90;;;;;;5071242;28;20387;-69
2022/12/08 06:58:11;;;;;;;3.75;0.65;;;2.60;99.90;;;;;;5071256;28;20087;-69
2022/12/08 07:00:37;;;;;;;3.15;0.68;;;2.80;99.90;;;;;;5072617;28;20044;-69
2022/12/08 07:03:02;;;;;;;0.68;0.40;;;2.70;99.90;;;;;;5070718;28;20043;-69
2022/12/08 07:05:28;;;;;;;2.17;0.47;;;2.40;99.90;;;;;;5072341;28;20075;-68
2022/12/08 07:07:53;;;;;;;0.73;0.40;;;2.30;99.90;;;;;;5071277;28;20554;-69
2022/12/08 07:10:19;;;;;;;0.70;0.70;;;2.40;99.90;;;;;;5071054;28;20093;-69
2022/12/08 07:12:44;;;;;;;1.50;0.60;;;2.30;99.90;;;;;;5072172;28;20406;-68
2022/12/08 07:15:10;;;;;;;2.30;0.55;;;2.70;99.90;;;;;;5070908;28;20049;-68
2022/12/08 07:17:36;;;;;;;0.98;0.50;;;2.50;99.90;;;;;;5070877;28;20087;-68
2022/12/08 07:20:01;;;;;;;1.60;0.50;;;2.60;99.90;;;;;;5072112;28;20040;-69
2022/12/08 07:22:27;;;;;;;2.13;0.40;;;2.20;99.90;;;;;;5070878;28;20033;-69
2022/12/08 07:24:52;;;;;;;1.88;0.40;;;2.30;99.90;;;;;;5070706;28;20043;-69
2022/12/08 07:27:18;;;;;;;2.22;0.50;;;2.20;99.90;;;;;;5070616;28;20040;-69
2022/12/08 07:29:43;;;;;;;1.92;0.68;;;2.20;99.90;;;;;;5070709;28;20410;-69
2022/12/08 07:32:09;;;;;;;1.70;0.45;;;2.30;99.90;;;;;;5071974;28;20044;-70
2022/12/08 07:34:34;;;;;;;1.23;0.57;;;2.50;99.90;;;;;;5070207;28;20048;-69
2022/12/08 07:37:01;;;;;;;3.75;0.80;;;2.00;99.90;;;;;;5070589;28;20603;-69
2022/12/08 07:39:26;;;;;;;1.08;0.80;;;2.30;99.90;;;;;;5070684;28;20643;-69
2022/12/08 07:41:52;;;;;;;2.22;0.85;;;2.10;99.90;;;;;;5070280;28;20032;-68
2022/12/08 07:44:17;;;;;;;2.15;0.75;;;2.40;99.90;;;;;;5070190;28;20090;-69
2022/12/08 07:46:43;;;;;;;2.00;0.70;;;1.90;99.90;;;;;;5056645;28;20495;-69
2022/12/08 07:49:09;;;;;;;5.20;1.17;;;2.30;99.90;;;;;;5049882;28;20094;-69
2022/12/08 07:51:34;;;;;;;2.40;1.20;;;1.90;99.90;;;;;;5050478;28;20388;-68
2022/12/08 07:54:00;;;;;;;1.83;1.13;;;2.30;99.90;;;;;;5050104;28;20123;-69
2022/12/08 07:56:25;;;;;;;1.85;0.90;;;2.00;99.90;;;;;;5050263;28;20564;-69
2022/12/08 07:58:51;;;;;;;1.40;1.00;;;2.00;99.90;;;;;;5050260;28;20045;-68
2022/12/08 08:01:35;;;;;;;4.32;1.30;;;2.10;99.90;;;;;;5050252;28;20430;-68
2022/12/08 08:04:03;;;;;;;4.40;1.20;;;2.30;99.90;;;;;;5033089;28;20072;-69
2022/12/08 08:06:30;;;;;;;3.05;1.45;;;1.80;99.90;;;;;;5049581;28;20414;-68
2022/12/08 08:08:55;;;;;;;2.45;1.20;;;2.30;99.90;;;;;;5033391;28;20045;-68
2022/12/08 08:11:21;;;;;;;2.22;1.10;;;2.30;99.90;;;;;;5051452;28;20044;-68
2022/12/08 08:13:47;;;;;;;3.83;1.40;;;2.00;99.90;;;;;;5051377;28;20037;-69
2022/12/08 08:16:12;;;;;;;2.65;1.50;;;2.20;99.90;;;;;;5051228;28;20080;-68
2022/12/08 08:18:39;;;;;;;2.83;1.27;;;2.10;99.90;;;;;;5051809;28;20357;-68
2022/12/08 08:21:05;;;;;;;4.38;1.80;;;1.80;99.90;;;;;;5050268;28;20041;-68
2022/12/08 08:23:31;;;;;;;1.58;1.10;;;1.90;99.90;;;;;;5050770;28;20037;-68
2022/12/08 08:26:02;;;;;;;2.05;1.27;;;2.30;99.90;;;;;;5049962;28;20150;-69
2022/12/08 08:28:28;;;;;;;5.93;1.27;;;2.00;99.90;;;;;;5050244;28;20395;-69
2022/12/08 08:30:54;;;;;;;2.13;1.20;;;1.90;99.90;;;;;;5033328;28;20037;-69
2022/12/08 08:33:20;;;;;;;4.78;1.33;;;2.00;99.90;;;;;;5053943;28;20048;-68
2022/12/08 08:35:45;;;;;;;2.30;1.15;;;2.20;99.90;;;;;;5053922;28;20451;-70
2022/12/08 08:38:11;;;;;;;3.30;1.33;;;1.90;99.90;;;;;;5055357;28;20037;-68
2022/12/08 08:40:36;;;;;;;3.67;1.92;;;1.90;99.90;;;;;;5054219;28;20037;-68
2022/12/08 08:43:04;;;;;;;6.93;1.90;;;2.10;99.90;;;;;;5054898;28;20025;-70
2022/12/08 08:45:30;;;;;;;3.75;1.90;;;1.90;99.90;;;;;;5055019;28;20052;-70
2022/12/08 08:47:56;;;;;;;2.35;1.63;;;1.90;99.90;;;;;;5054024;28;20037;-70
2022/12/08 08:50:21;;;;;;;6.28;1.70;;;1.90;99.90;;;;;;5053816;28;20452;-71
2022/12/08 08:52:47;;;;;;;3.70;2.17;;;2.10;99.90;;;;;;5054888;28;20044;-70
2022/12/08 08:55:13;;;;;;;4.28;1.50;;;2.10;99.90;;;;;;5053661;28;20138;-68
2022/12/08 08:57:38;;;;;;;7.40;1.50;;;2.30;99.90;;;;;;5054838;28;20048;-67
2022/12/08 09:00:05;;;;;;;3.63;1.30;;;2.60;99.90;;;;;;5054643;28;20037;-74
2022/12/08 09:02:31;;;;;;;5.55;1.55;;;2.10;99.90;;;;;;5053022;28;20033;-74
2022/12/08 09:04:56;;;;;;;8.32;2.38;;;2.30;99.90;;;;;;5053737;28;20134;-74
2022/12/08 09:07:22;;;;;;;2.47;1.75;;;2.30;99.90;;;;;;5053698;28;20028;-74
2022/12/08 09:09:47;;;;;;;5.10;1.40;;;2.60;99.90;;;;;;5053460;28;20434;-74
2022/12/08 09:12:13;;;;;;;2.95;1.30;;;2.60;99.90;;;;;;5053789;28;20410;-76
2022/12/08 09:14:39;;;;;;;4.93;1.65;;;2.70;99.90;;;;;;5053209;28;20710;-74
2022/12/08 09:17:04;;;;;;;4.60;2.08;;;2.40;99.90;;;;;;5053639;28;20044;-74
2022/12/08 09:19:30;;;;;;;4.97;1.63;;;2.30;99.90;;;;;;5053382;28;20037;-74
2022/12/08 09:21:56;;;;;;;3.05;1.60;;;2.40;99.90;;;;;;5053332;28;20039;-74
2022/12/08 09:24:22;;;;;;;5.28;1.65;;;2.30;99.90;;;;;;5052821;28;20491;-74
2022/12/08 09:26:47;;;;;;;2.38;1.42;;;2.20;99.90;;;;;;5053178;28;20052;-74
2022/12/08 09:29:13;;;;;;;3.22;1.45;;;2.50;99.90;;;;;;5052905;28;20702;-74
2022/12/08 09:31:39;;;;;;;4.32;1.63;;;2.20;99.90;;;;;;5036499;28;20044;-74
2022/12/08 09:34:05;;;;;;;3.58;1.83;;;2.70;99.90;;;;;;5052522;28;20037;-74
2022/12/08 09:36:30;;;;;;;3.28;1.77;;;2.60;99.90;;;;;;5036219;28;20045;-74
2022/12/08 09:38:56;;;;;;;4.95;2.10;;;2.60;99.90;;;;;;5036466;28;20025;-74
2022/12/08 09:41:35;;;;;;;6.93;1.90;;;2.60;99.90;;;;;;5052872;28;20040;-74
2022/12/08 09:44:44;;;;;;;2.67;1.73;;;2.90;99.90;;;;;;5034541;28;20091;-75
2022/12/08 09:47:30;;;;;;;6.90;1.80;;;3.00;99.90;;;;;;5052939;28;20440;-74
2022/12/08 09:50:06;;;;;;;7.10;2.20;;;2.70;99.90;;;;;;5053897;28;20076;-74
2022/12/08 09:52:58;;;;;;;3.40;1.88;;;2.60;99.90;;;;;;5035776;28;20101;-74
2022/12/08 09:55:49;;;;;;;7.43;2.10;;;3.00;99.90;;;;;;5052632;28;20490;-76
2022/12/08 09:58:44;;;;;;;4.45;1.88;;;3.10;99.90;;;;;;5052531;28;20048;-74
2022/12/08 10:01:11;;;;;;;3.05;1.52;;;2.80;99.90;;;;;;5052363;28;20052;-74
2022/12/08 10:03:36;;;;;;;7.35;2.35;;;2.60;99.90;;;;;;5051980;28;20143;-74
2022/12/08 10:06:19;;;;;;;8.45;2.15;;;2.80;99.90;;;;;;5052242;28;20553;-74
2022/12/08 10:08:57;;;;;;;5.03;2.22;;;3.20;99.90;;;;;;5052509;28;20070;-74
2022/12/08 10:11:31;;;;;;;6.28;2.55;;;2.80;99.90;;;;;;5035746;28;20048;-74
2022/12/08 10:14:05;;;;;;;4.18;2.20;;;3.10;99.90;;;;;;5052151;28;20403;-74
2022/12/08 10:16:40;;;;;;;3.92;2.05;;;2.80;99.90;;;;;;5052447;28;20430;-74
2022/12/08 10:19:22;;;;;;;4.22;1.95;;;2.70;99.90;;;;;;5052362;28;20143;-74
2022/12/08 10:21:48;;;;;;;5.85;2.10;;;3.30;99.90;;;;;;5052348;28;20050;-74
2022/12/08 10:24:33;;;;;;;4.78;1.92;;;2.80;99.90;;;;;;5051663;28;20052;-74
2022/12/08 10:27:00;;;;;;;5.97;1.98;;;2.90;99.90;;;;;;5035411;28;20037;-74
2022/12/08 10:29:25;;;;;;;6.97;2.28;;;3.40;99.90;;;;;;5051772;28;20037;-74
2022/12/08 10:31:51;;;;;;;6.20;1.95;;;3.20;99.90;;;;;;5035313;28;20068;-74
2022/12/08 10:34:21;;;;;;;3.65;1.60;;;3.20;99.90;;;;;;5052716;28;20044;-74
2022/12/08 10:36:56;;;;;;;6.43;2.00;;;3.40;99.90;;;;;;5051849;28;20037;-73
2022/12/08 10:39:38;;;;;;;6.25;1.75;;;3.30;99.90;;;;;;5051789;28;20045;-74
2022/12/08 10:42:08;;;;;;;3.60;1.80;;;3.10;99.90;;;;;;5052817;28;20032;-74
2022/12/08 10:44:55;;;;;;;6.80;1.88;;;3.30;99.90;;;;;;5018232;28;20076;-74
2022/12/08 10:47:23;;;;;;;4.07;1.88;;;3.30;99.90;;;;;;5051844;28;20097;-74
2022/12/08 10:50:14;;;;;;;3.03;1.75;;;3.40;99.90;;;;;;5051513;28;20540;-74
2022/12/08 10:52:40;;;;;;;9.30;2.10;;;3.40;99.90;;;;;;5034868;28;20479;-74
2022/12/08 10:55:19;;;;;;;6.72;1.80;;;3.00;99.90;;;;;;5051215;28;20048;-74
2022/12/08 10:57:47;;;;;;;3.95;2.05;;;3.40;99.90;;;;;;5052594;28;20491;-74
2022/12/08 11:00:15;;;;;;;7.45;2.25;;;3.20;99.90;;;;;;5034972;28;20040;-74
2022/12/08 11:03:01;;;;;;;4.75;3.30;;;3.30;99.90;;;;;;5034292;28;20040;-74
2022/12/08 11:05:34;;;;;;;5.85;1.98;;;3.30;99.90;;;;;;5051103;28;20044;-74
2022/12/08 11:08:01;;;;;;;3.10;1.80;;;3.30;99.90;;;;;;5051199;28;20116;-74
2022/12/08 11:10:45;;;;;;;6.68;1.60;;;3.00;99.90;;;;;;5051303;28;20124;-74
2022/12/08 11:13:22;;;;;;;;;;;3.00;99.90;;;;;;5034874;28;20037;-74
2022/12/08 11:15:49;;;;;;;3.63;1.88;;;3.00;99.90;;;;;;5051051;28;20517;-74
2022/12/08 11:18:26;;;;;;;6.90;3.00;;;3.10;99.90;;;;;;5050860;28;20478;-74
2022/12/08 11:21:08;;;;;;;5.90;1.33;;;3.40;99.90;;;;;;5051322;28;20103;-74
2022/12/08 11:23:36;;;;;;;5.72;2.03;;;3.50;99.90;;;;;;5033784;28;20072;-74
2022/12/08 11:26:27;;;;;;;5.47;1.70;;;3.70;99.90;;;;;;5050840;28;20041;-74
2022/12/08 11:28:53;;;;;;;3.75;1.40;;;3.80;99.90;;;;;;5034111;28;20037;-74
2022/12/08 11:31:33;;;;;;;4.05;1.30;;;3.60;99.90;;;;;;5050893;28;20059;-74
2022/12/08 11:34:01;;;;;;;10.80;2.05;;;3.60;99.90;;;;;;5034023;28;20032;-74
2022/12/08 11:36:30;;;;;;;5.57;1.25;;;3.80;99.90;;;;;;5033978;28;20041;-74
2022/12/08 11:38:59;;;;;;;6.57;1.20;;;4.10;99.90;;;;;;5034066;28;20162;-74
2022/12/08 11:41:46;;;;;;;5.53;1.40;;;3.90;99.90;;;;;;5050438;28;20052;-74
2022/12/08 11:44:36;;;;;;;5.30;1.10;;;4.20;99.90;;;;;;5050266;28;20041;-74
2022/12/08 11:47:20;;;;;;;8.68;1.30;;;4.10;99.90;;;;;;5050352;28;20037;-74
2022/12/08 11:49:47;;;;;;;5.68;1.55;;;4.00;99.90;;;;;;5050386;28;20041;-74
2022/12/08 11:52:31;;;;;;;2.80;1.20;;;4.10;99.90;;;;;;5050540;28;20080;-74
2022/12/08 11:55:12;;;;;;;5.43;1.55;;;4.50;99.90;;;;;;5050485;28;20398;-74
2022/12/08 11:57:38;;;;;;;4.20;1.30;;;4.30;99.90;;;;;;5050420;28;20048;-74
2022/12/08 12:00:05;;;;;;;4.20;1.45;;;4.20;99.90;;;;;;5033598;28;20041;-74
2022/12/08 12:02:41;;;;;;;5.80;1.90;;;4.60;99.90;;;;;;5049873;28;20041;-74
2022/12/08 12:05:44;;;;;;;7.10;2.00;;;4.40;99.90;;;;;;5049954;28;20080;-74
2022/12/08 12:08:46;;;;;;;3.43;1.27;;;4.50;99.90;;;;;;5050190;28;20055;-74
2022/12/08 12:14:52;;;;;;;5.43;1.48;;;4.50;99.90;;;;;;5049937;28;20094;-74
2022/12/08 12:17:37;;;;;;;2.95;1.40;;;4.50;99.90;;;;;;5010992;28;20556;-74
2022/12/08 12:20:10;;;;;;;7.07;2.40;;;4.20;99.90;;;;;;5050302;28;20048;-74
2022/12/08 12:22:37;;;;;;;4.97;1.50;;;4.30;99.90;;;;;;5049757;28;20136;-74
2022/12/08 12:25:03;;;;;;;8.68;1.98;;;4.40;99.90;;;;;;5033631;28;20049;-74
2022/12/08 12:27:37;;;;;;;3.75;1.88;;;4.40;99.90;;;;;;5050085;28;20093;-74
2022/12/08 12:30:07;;;;;;;6.45;2.55;;;4.60;99.90;;;;;;5050077;28;20494;-74
2022/12/08 12:32:47;;;;;;;6.57;2.00;;;4.80;99.90;;;;;;5049579;28;20052;-74
2022/12/08 12:35:18;;;;;;;5.55;1.55;;;5.00;99.90;;;;;;5033484;28;20436;-74
2022/12/08 12:37:44;;;;;;;7.43;2.25;;;4.80;99.90;;;;;;5032808;28;20041;-74
2022/12/08 12:40:35;;;;;;;4.43;1.67;;;4.90;99.90;;;;;;5049676;28;20041;-74
2022/12/08 12:43:00;;;;;;;3.22;1.67;;;5.00;99.90;;;;;;5049318;28;20073;-74
2022/12/08 12:45:30;;;;;;;11.00;1.98;;;5.00;99.90;;;;;;5033395;28;20103;-74
2022/12/08 12:47:56;;;;;;;5.15;1.65;;;4.90;99.90;;;;;;5033312;28;20084;-74
2022/12/08 12:50:34;;;;;;;4.45;1.38;;;4.80;99.90;;;;;;5049783;28;20048;-74
2022/12/08 12:53:05;;;;;;;3.63;1.38;;;4.90;99.90;;;;;;5049768;28;20526;-74
2022/12/08 12:55:43;;;;;;;3.67;1.50;;;4.80;99.90;;;;;;5049383;28;20041;-74
2022/12/08 12:58:33;;;;;;;5.93;1.70;;;4.70;99.90;;;;;;5049591;28;20063;-74
2022/12/08 13:01:35;;;;;;;7.82;2.33;;;4.90;99.90;;;;;;5049616;28;20510;-74
2022/12/08 13:04:06;;;;;;;6.35;1.60;;;4.90;99.90;;;;;;5032809;28;20037;-74
2022/12/08 13:06:43;;;;;;;7.25;2.42;;;4.70;99.90;;;;;;5033171;28;20542;-75
2022/12/08 13:09:20;;;;;;;5.63;2.10;;;4.70;99.90;;;;;;5033397;28;20045;-74
2022/12/08 13:11:50;;;;;;;4.55;1.55;;;4.80;99.90;;;;;;5049867;28;20037;-74
2022/12/08 13:14:32;;;;;;;6.00;1.90;;;4.60;99.90;;;;;;5049265;28;20556;-74
2022/12/08 13:17:00;;;;;;;6.55;1.30;;;4.50;99.90;;;;;;5050074;28;20048;-74
2022/12/08 13:19:30;;;;;;;4.90;1.85;;;4.60;99.90;;;;;;5053449;28;20052;-74